sensor_id;sensor_type;location;lat;lon;timestamp;P1;durP1;ratioP1;P2;durP2;ratioP2
24867;SDS011;12941;48.698;9.310;2023-12-20T00:00:41;1.2;;;0.9;;
24867;SDS011;12941;48.698;9.310;2023-12-20T00:01:45;1.2;;;0.9;;
24867;SDS011;12941;48.698;9.310;2023-12-20T00:02:51;1.2;;;0.9;;
24867;SDS011;12941;48.698;9.310;2023-12-20T00:03:55;1.5;;;1;;
24867;SDS011;12941;48.698;9.310;2023-12-20T00:05:01;1.5;;;1;;
24867;SDS011;12941;48.698;9.310;2023-12-20T00:06:05;1.5;;;1;;
24867;SDS011;12941;48.698;9.310;2023-12-20T00:07:05;1.5;;;1;;
24867;SDS011;12941;48.698;9.310;2023-12-20T00:08:05;1.5;;;1;;
24867;SDS011;12941;48.698;9.310;2023-12-20T00:09:05;1.3;;;1.2;;
24867;SDS011;12941;48.698;9.310;2023-12-20T00:10:11;1.3;;;1.2;;
24867;SDS011;12941;48.698;9.310;2023-12-20T00:11:11;1.3;;;1.2;;
24867;SDS011;12941;48.698;9.310;2023-12-20T00:12:15;1.3;;;1.2;;
24867;SDS011;12941;48.698;9.310;2023-12-20T00:13:21;1.2;;;1.1;;
24867;SDS011;12941;48.698;9.310;2023-12-20T00:14:21;1.2;;;1.1;;
24867;SDS011;12941;48.698;9.310;2023-12-20T00:15:21;1.2;;;1.1;;
24867;SDS011;12941;48.698;9.310;2023-12-20T00:16:21;1.2;;;1.1;;
24867;SDS011;12941;48.698;9.310;2023-12-20T00:17:25;1.2;;;1.1;;
24867;SDS011;12941;48.698;9.310;2023-12-20T00:18:31;0.9;;;0.9;;
24867;SDS011;12941;48.698;9.310;2023-12-20T00:19:35;0.9;;;0.9;;
24867;SDS011;12941;48.698;9.310;2023-12-20T00:20:35;0.9;;;0.9;;
24867;SDS011;12941;48.698;9.310;2023-12-20T00:21:35;0.9;;;0.9;;
24867;SDS011;12941;48.698;9.310;2023-12-20T00:22:41;0.9;;;0.9;;
24867;SDS011;12941;48.698;9.310;2023-12-20T00:23:45;1.5;;;0.9;;
24867;SDS011;12941;48.698;9.310;2023-12-20T00:24:51;1.5;;;0.9;;
24867;SDS011;12941;48.698;9.310;2023-12-20T00:25:51;1.5;;;0.9;;
24867;SDS011;12941;48.698;9.310;2023-12-20T00:26:55;1.5;;;0.9;;
24867;SDS011;12941;48.698;9.310;2023-12-20T00:28:01;1.5;;;0.9;;
24867;SDS011;12941;48.698;9.310;2023-12-20T00:29:05;1.1;;;1;;
24867;SDS011;12941;48.698;9.310;2023-12-20T00:30:06;1.1;;;1;;
24867;SDS011;12941;48.698;9.310;2023-12-20T00:31:05;1.1;;;1;;
24867;SDS011;12941;48.698;9.310;2023-12-20T00:32:11;1.1;;;1;;
24867;SDS011;12941;48.698;9.310;2023-12-20T00:33:11;1.2;;;1.1;;
24867;SDS011;12941;48.698;9.310;2023-12-20T00:34:15;1.1;;;1;;
24867;SDS011;12941;48.698;9.310;2023-12-20T00:35:16;1.1;;;1;;
24867;SDS011;12941;48.698;9.310;2023-12-20T00:36:21;1.1;;;1;;
24867;SDS011;12941;48.698;9.310;2023-12-20T00:37:21;1.1;;;1;;
24867;SDS011;12941;48.698;9.310;2023-12-20T00:38:21;1.3;;;1;;
24867;SDS011;12941;48.698;9.310;2023-12-20T00:39:25;1.3;;;1;;
24867;SDS011;12941;48.698;9.310;2023-12-20T00:40:25;1.3;;;1;;
24867;SDS011;12941;48.698;9.310;2023-12-20T00:41:31;1.3;;;1;;
24867;SDS011;12941;48.698;9.310;2023-12-20T00:42:35;1.3;;;1;;
24867;SDS011;12941;48.698;9.310;2023-12-20T00:43:35;1.2;;;1.1;;
24867;SDS011;12941;48.698;9.310;2023-12-20T00:44:41;1.2;;;1.1;;
24867;SDS011;12941;48.698;9.310;2023-12-20T00:45:41;1.2;;;1.1;;
24867;SDS011;12941;48.698;9.310;2023-12-20T00:46:41;1.2;;;1.1;;
24867;SDS011;12941;48.698;9.310;2023-12-20T00:47:47;1.2;;;1.1;;
24867;SDS011;12941;48.698;9.310;2023-12-20T00:48:51;1.3;;;1.1;;
24867;SDS011;12941;48.698;9.310;2023-12-20T00:49:56;1.3;;;1.1;;
24867;SDS011;12941;48.698;9.310;2023-12-20T00:50:56;1.3;;;1.1;;
24867;SDS011;12941;48.698;9.310;2023-12-20T00:52:01;1.3;;;1.1;;
24867;SDS011;12941;48.698;9.310;2023-12-20T00:53:01;1.3;;;1.1;;
24867;SDS011;12941;48.698;9.310;2023-12-20T00:54:06;0.9;;;0.8;;
24867;SDS011;12941;48.698;9.310;2023-12-20T00:55:06;0.9;;;0.8;;
24867;SDS011;12941;48.698;9.310;2023-12-20T00:56:11;0.9;;;0.8;;
24867;SDS011;12941;48.698;9.310;2023-12-20T00:57:11;0.9;;;0.8;;
24867;SDS011;12941;48.698;9.310;2023-12-20T00:58:11;1.1;;;1;;
24867;SDS011;12941;48.698;9.310;2023-12-20T00:59:16;1;;;0.9;;
24867;SDS011;12941;48.698;9.310;2023-12-20T01:00:16;1;;;0.9;;
24867;SDS011;12941;48.698;9.310;2023-12-20T01:01:21;1;;;0.9;;
24867;SDS011;12941;48.698;9.310;2023-12-20T01:02:21;1;;;0.9;;
24867;SDS011;12941;48.698;9.310;2023-12-20T01:03:26;1.4;;;1.2;;
24867;SDS011;12941;48.698;9.310;2023-12-20T01:04:31;1.4;;;1.2;;
24867;SDS011;12941;48.698;9.310;2023-12-20T01:05:36;1.4;;;1.2;;
24867;SDS011;12941;48.698;9.310;2023-12-20T01:06:41;1.4;;;1.2;;
24867;SDS011;12941;48.698;9.310;2023-12-20T01:07:46;1.4;;;1.2;;
24867;SDS011;12941;48.698;9.310;2023-12-20T01:08:46;1.3;;;1.2;;
24867;SDS011;12941;48.698;9.310;2023-12-20T01:09:51;1.3;;;1.2;;
24867;SDS011;12941;48.698;9.310;2023-12-20T01:10:56;1.3;;;1.2;;
24867;SDS011;12941;48.698;9.310;2023-12-20T01:12:01;1.3;;;1.2;;
24867;SDS011;12941;48.698;9.310;2023-12-20T01:13:06;1.3;;;1.2;;
24867;SDS011;12941;48.698;9.310;2023-12-20T01:14:06;1.4;;;1.3;;
24867;SDS011;12941;48.698;9.310;2023-12-20T01:15:06;1.4;;;1.3;;
24867;SDS011;12941;48.698;9.310;2023-12-20T01:16:11;1.4;;;1.3;;
24867;SDS011;12941;48.698;9.310;2023-12-20T01:17:11;1.4;;;1.3;;
24867;SDS011;12941;48.698;9.310;2023-12-20T01:18:12;0.8;;;0.8;;
24867;SDS011;12941;48.698;9.310;2023-12-20T01:19:16;0.8;;;0.8;;
24867;SDS011;12941;48.698;9.310;2023-12-20T01:20:21;0.8;;;0.8;;
24867;SDS011;12941;48.698;9.310;2023-12-20T01:21:21;0.8;;;0.8;;
24867;SDS011;12941;48.698;9.310;2023-12-20T01:22:21;0.8;;;0.8;;
24867;SDS011;12941;48.698;9.310;2023-12-20T01:23:26;1;;;0.9;;
24867;SDS011;12941;48.698;9.310;2023-12-20T01:24:31;1;;;0.9;;
24867;SDS011;12941;48.698;9.310;2023-12-20T01:25:36;1;;;0.9;;
24867;SDS011;12941;48.698;9.310;2023-12-20T01:26:41;1;;;0.9;;
24867;SDS011;12941;48.698;9.310;2023-12-20T01:27:41;1;;;0.9;;
24867;SDS011;12941;48.698;9.310;2023-12-20T01:28:46;0.8;;;0.8;;
24867;SDS011;12941;48.698;9.310;2023-12-20T01:29:51;0.8;;;0.8;;
24867;SDS011;12941;48.698;9.310;2023-12-20T01:30:51;0.8;;;0.8;;
24867;SDS011;12941;48.698;9.310;2023-12-20T01:31:51;0.8;;;0.8;;
24867;SDS011;12941;48.698;9.310;2023-12-20T01:32:51;0.8;;;0.8;;
24867;SDS011;12941;48.698;9.310;2023-12-20T01:33:56;0.8;;;0.8;;
24867;SDS011;12941;48.698;9.310;2023-12-20T01:34:56;0.8;;;0.8;;
24867;SDS011;12941;48.698;9.310;2023-12-20T01:35:56;0.8;;;0.8;;
24867;SDS011;12941;48.698;9.310;2023-12-20T01:37:01;0.8;;;0.8;;
24867;SDS011;12941;48.698;9.310;2023-12-20T01:38:06;0.8;;;0.8;;
24867;SDS011;12941;48.698;9.310;2023-12-20T01:39:06;1.2;;;1.1;;
24867;SDS011;12941;48.698;9.310;2023-12-20T01:40:06;1.2;;;1.1;;
24867;SDS011;12941;48.698;9.310;2023-12-20T01:41:11;1.2;;;1.1;;
24867;SDS011;12941;48.698;9.310;2023-12-20T01:42:11;1.2;;;1.1;;
24867;SDS011;12941;48.698;9.310;2023-12-20T01:43:12;0.9;;;0.9;;
24867;SDS011;12941;48.698;9.310;2023-12-20T01:44:16;0.9;;;0.9;;
24867;SDS011;12941;48.698;9.310;2023-12-20T01:45:16;0.9;;;0.9;;
24867;SDS011;12941;48.698;9.310;2023-12-20T01:46:16;0.9;;;0.9;;
24867;SDS011;12941;48.698;9.310;2023-12-20T01:47:21;0.9;;;0.9;;
24867;SDS011;12941;48.698;9.310;2023-12-20T01:48:21;0.7;;;0.7;;
24867;SDS011;12941;48.698;9.310;2023-12-20T01:49:21;0.7;;;0.7;;
24867;SDS011;12941;48.698;9.310;2023-12-20T01:50:26;0.7;;;0.7;;
24867;SDS011;12941;48.698;9.310;2023-12-20T01:51:31;0.7;;;0.7;;
24867;SDS011;12941;48.698;9.310;2023-12-20T01:52:36;0.7;;;0.7;;
24867;SDS011;12941;48.698;9.310;2023-12-20T01:53:36;1.4;;;0.7;;
24867;SDS011;12941;48.698;9.310;2023-12-20T01:54:41;1.4;;;0.7;;
24867;SDS011;12941;48.698;9.310;2023-12-20T01:55:41;1.4;;;0.7;;
24867;SDS011;12941;48.698;9.310;2023-12-20T01:56:41;1.4;;;0.7;;
24867;SDS011;12941;48.698;9.310;2023-12-20T01:57:41;1.4;;;0.7;;
24867;SDS011;12941;48.698;9.310;2023-12-20T01:58:46;1;;;0.7;;
24867;SDS011;12941;48.698;9.310;2023-12-20T01:59:46;1;;;0.7;;
24867;SDS011;12941;48.698;9.310;2023-12-20T02:00:46;1;;;0.7;;
24867;SDS011;12941;48.698;9.310;2023-12-20T02:01:46;1;;;0.7;;
24867;SDS011;12941;48.698;9.310;2023-12-20T02:02:51;1;;;0.7;;
24867;SDS011;12941;48.698;9.310;2023-12-20T02:03:51;0.8;;;0.8;;
24867;SDS011;12941;48.698;9.310;2023-12-20T02:04:51;0.8;;;0.8;;
24867;SDS011;12941;48.698;9.310;2023-12-20T02:05:51;0.8;;;0.8;;
24867;SDS011;12941;48.698;9.310;2023-12-20T02:06:52;0.8;;;0.8;;
24867;SDS011;12941;48.698;9.310;2023-12-20T02:07:56;0.8;;;0.8;;
24867;SDS011;12941;48.698;9.310;2023-12-20T02:09:01;0.7;;;0.7;;
24867;SDS011;12941;48.698;9.310;2023-12-20T02:10:01;0.7;;;0.7;;
24867;SDS011;12941;48.698;9.310;2023-12-20T02:11:01;0.7;;;0.7;;
24867;SDS011;12941;48.698;9.310;2023-12-20T02:12:01;0.7;;;0.7;;
24867;SDS011;12941;48.698;9.310;2023-12-20T02:13:06;0.7;;;0.7;;
24867;SDS011;12941;48.698;9.310;2023-12-20T02:14:11;1.4;;;0.8;;
24867;SDS011;12941;48.698;9.310;2023-12-20T02:15:16;1.4;;;0.8;;
24867;SDS011;12941;48.698;9.310;2023-12-20T02:16:16;1.4;;;0.8;;
24867;SDS011;12941;48.698;9.310;2023-12-20T02:17:16;1.4;;;0.8;;
24867;SDS011;12941;48.698;9.310;2023-12-20T02:18:16;0.6;;;0.6;;
24867;SDS011;12941;48.698;9.310;2023-12-20T02:19:21;0.6;;;0.6;;
24867;SDS011;12941;48.698;9.310;2023-12-20T02:20:26;0.6;;;0.6;;
24867;SDS011;12941;48.698;9.310;2023-12-20T02:21:31;0.6;;;0.6;;
24867;SDS011;12941;48.698;9.310;2023-12-20T02:22:26;0.6;;;0.6;;
24867;SDS011;12941;48.698;9.310;2023-12-20T02:23:31;1.3;;;0.7;;
24867;SDS011;12941;48.698;9.310;2023-12-20T02:24:31;1.3;;;0.7;;
24867;SDS011;12941;48.698;9.310;2023-12-20T02:25:31;1.3;;;0.7;;
24867;SDS011;12941;48.698;9.310;2023-12-20T02:26:36;1.3;;;0.7;;
24867;SDS011;12941;48.698;9.310;2023-12-20T02:27:36;1.3;;;0.7;;
24867;SDS011;12941;48.698;9.310;2023-12-20T02:28:36;1;;;0.6;;
24867;SDS011;12941;48.698;9.310;2023-12-20T02:29:41;1;;;0.6;;
24867;SDS011;12941;48.698;9.310;2023-12-20T02:30:41;1;;;0.6;;
24867;SDS011;12941;48.698;9.310;2023-12-20T02:31:46;1;;;0.6;;
24867;SDS011;12941;48.698;9.310;2023-12-20T02:32:51;1;;;0.6;;
24867;SDS011;12941;48.698;9.310;2023-12-20T02:33:56;0.8;;;0.6;;
24867;SDS011;12941;48.698;9.310;2023-12-20T02:34:57;0.8;;;0.6;;
24867;SDS011;12941;48.698;9.310;2023-12-20T02:35:57;0.8;;;0.6;;
24867;SDS011;12941;48.698;9.310;2023-12-20T02:36:57;0.8;;;0.6;;
24867;SDS011;12941;48.698;9.310;2023-12-20T02:38:01;0.8;;;0.6;;
24867;SDS011;12941;48.698;9.310;2023-12-20T02:39:01;0.9;;;0.8;;
24867;SDS011;12941;48.698;9.310;2023-12-20T02:40:01;0.9;;;0.8;;
24867;SDS011;12941;48.698;9.310;2023-12-20T02:41:01;0.9;;;0.8;;
24867;SDS011;12941;48.698;9.310;2023-12-20T02:42:01;0.9;;;0.8;;
24867;SDS011;12941;48.698;9.310;2023-12-20T02:43:07;0.9;;;0.8;;
24867;SDS011;12941;48.698;9.310;2023-12-20T02:44:07;1.3;;;0.6;;
24867;SDS011;12941;48.698;9.310;2023-12-20T02:45:07;1.3;;;0.6;;
24867;SDS011;12941;48.698;9.310;2023-12-20T02:46:07;1.3;;;0.6;;
24867;SDS011;12941;48.698;9.310;2023-12-20T02:47:11;1.3;;;0.6;;
24867;SDS011;12941;48.698;9.310;2023-12-20T02:48:12;0.7;;;0.5;;
24867;SDS011;12941;48.698;9.310;2023-12-20T02:49:16;0.7;;;0.5;;
24867;SDS011;12941;48.698;9.310;2023-12-20T02:50:21;0.7;;;0.5;;
24867;SDS011;12941;48.698;9.310;2023-12-20T02:51:21;0.7;;;0.5;;
24867;SDS011;12941;48.698;9.310;2023-12-20T02:52:22;0.7;;;0.5;;
24867;SDS011;12941;48.698;9.310;2023-12-20T02:53:26;0.5;;;0.5;;
24867;SDS011;12941;48.698;9.310;2023-12-20T02:54:27;0.5;;;0.5;;
24867;SDS011;12941;48.698;9.310;2023-12-20T02:55:27;0.5;;;0.5;;
24867;SDS011;12941;48.698;9.310;2023-12-20T02:56:31;0.5;;;0.5;;
24867;SDS011;12941;48.698;9.310;2023-12-20T02:57:31;0.5;;;0.5;;
24867;SDS011;12941;48.698;9.310;2023-12-20T02:58:37;0.7;;;0.7;;
24867;SDS011;12941;48.698;9.310;2023-12-20T02:59:37;0.7;;;0.7;;
24867;SDS011;12941;48.698;9.310;2023-12-20T03:00:41;0.7;;;0.7;;
24867;SDS011;12941;48.698;9.310;2023-12-20T03:01:47;0.7;;;0.7;;
24867;SDS011;12941;48.698;9.310;2023-12-20T03:02:47;0.7;;;0.7;;
24867;SDS011;12941;48.698;9.310;2023-12-20T03:03:51;0.5;;;0.5;;
24867;SDS011;12941;48.698;9.310;2023-12-20T03:04:51;0.5;;;0.5;;
24867;SDS011;12941;48.698;9.310;2023-12-20T03:05:57;0.5;;;0.5;;
24867;SDS011;12941;48.698;9.310;2023-12-20T03:07:01;0.5;;;0.5;;
24867;SDS011;12941;48.698;9.310;2023-12-20T03:08:02;0.5;;;0.5;;
24867;SDS011;12941;48.698;9.310;2023-12-20T03:09:02;1.4;;;0.6;;
24867;SDS011;12941;48.698;9.310;2023-12-20T03:10:02;1.4;;;0.6;;
24867;SDS011;12941;48.698;9.310;2023-12-20T03:11:01;1.4;;;0.6;;
24867;SDS011;12941;48.698;9.310;2023-12-20T03:12:02;1.4;;;0.6;;
24867;SDS011;12941;48.698;9.310;2023-12-20T03:13:07;1.4;;;0.6;;
24867;SDS011;12941;48.698;9.310;2023-12-20T03:14:11;1.3;;;0.5;;
24867;SDS011;12941;48.698;9.310;2023-12-20T03:15:12;1.3;;;0.5;;
24867;SDS011;12941;48.698;9.310;2023-12-20T03:16:17;1.3;;;0.5;;
24867;SDS011;12941;48.698;9.310;2023-12-20T03:17:17;1.3;;;0.5;;
24867;SDS011;12941;48.698;9.310;2023-12-20T03:18:22;0.8;;;0.5;;
24867;SDS011;12941;48.698;9.310;2023-12-20T03:19:27;0.8;;;0.5;;
24867;SDS011;12941;48.698;9.310;2023-12-20T03:20:32;0.8;;;0.5;;
24867;SDS011;12941;48.698;9.310;2023-12-20T03:21:32;0.8;;;0.5;;
24867;SDS011;12941;48.698;9.310;2023-12-20T03:22:32;0.8;;;0.5;;
24867;SDS011;12941;48.698;9.310;2023-12-20T03:23:32;1.8;;;0.4;;
24867;SDS011;12941;48.698;9.310;2023-12-20T03:24:37;1.8;;;0.4;;
24867;SDS011;12941;48.698;9.310;2023-12-20T03:25:42;1.8;;;0.4;;
24867;SDS011;12941;48.698;9.310;2023-12-20T03:26:42;1.8;;;0.4;;
24867;SDS011;12941;48.698;9.310;2023-12-20T03:27:42;1.8;;;0.4;;
24867;SDS011;12941;48.698;9.310;2023-12-20T03:28:47;2.1;;;0.6;;
24867;SDS011;12941;48.698;9.310;2023-12-20T03:29:52;2.1;;;0.6;;
24867;SDS011;12941;48.698;9.310;2023-12-20T03:30:57;2.1;;;0.6;;
24867;SDS011;12941;48.698;9.310;2023-12-20T03:32:02;2.1;;;0.6;;
24867;SDS011;12941;48.698;9.310;2023-12-20T03:33:02;2.1;;;0.6;;
24867;SDS011;12941;48.698;9.310;2023-12-20T03:34:07;0.5;;;0.5;;
24867;SDS011;12941;48.698;9.310;2023-12-20T03:35:07;0.5;;;0.5;;
24867;SDS011;12941;48.698;9.310;2023-12-20T03:36:07;0.5;;;0.5;;
24867;SDS011;12941;48.698;9.310;2023-12-20T03:37:07;0.5;;;0.5;;
24867;SDS011;12941;48.698;9.310;2023-12-20T03:38:07;0.5;;;0.5;;
24867;SDS011;12941;48.698;9.310;2023-12-20T03:39:12;0.7;;;0.4;;
24867;SDS011;12941;48.698;9.310;2023-12-20T03:40:17;0.7;;;0.4;;
24867;SDS011;12941;48.698;9.310;2023-12-20T03:41:17;0.7;;;0.4;;
24867;SDS011;12941;48.698;9.310;2023-12-20T03:42:22;0.7;;;0.4;;
24867;SDS011;12941;48.698;9.310;2023-12-20T03:43:22;1.1;;;0.5;;
24867;SDS011;12941;48.698;9.310;2023-12-20T03:44:22;1.1;;;0.5;;
24867;SDS011;12941;48.698;9.310;2023-12-20T03:45:27;1.1;;;0.5;;
24867;SDS011;12941;48.698;9.310;2023-12-20T03:46:27;1.1;;;0.5;;
24867;SDS011;12941;48.698;9.310;2023-12-20T03:47:32;1.1;;;0.5;;
24867;SDS011;12941;48.698;9.310;2023-12-20T03:48:37;2.2;;;0.6;;
24867;SDS011;12941;48.698;9.310;2023-12-20T03:49:42;2.2;;;0.6;;
24867;SDS011;12941;48.698;9.310;2023-12-20T03:50:47;2.2;;;0.6;;
24867;SDS011;12941;48.698;9.310;2023-12-20T03:51:52;2.2;;;0.6;;
24867;SDS011;12941;48.698;9.310;2023-12-20T03:52:57;2.2;;;0.6;;
24867;SDS011;12941;48.698;9.310;2023-12-20T03:53:57;1.2;;;0.5;;
24867;SDS011;12941;48.698;9.310;2023-12-20T03:55:02;1.2;;;0.5;;
24867;SDS011;12941;48.698;9.310;2023-12-20T03:56:07;1.2;;;0.5;;
24867;SDS011;12941;48.698;9.310;2023-12-20T03:57:07;1.2;;;0.5;;
24867;SDS011;12941;48.698;9.310;2023-12-20T03:58:07;1.2;;;0.5;;
24867;SDS011;12941;48.698;9.310;2023-12-20T03:59:12;0.4;;;0.4;;
24867;SDS011;12941;48.698;9.310;2023-12-20T04:00:12;0.4;;;0.4;;
24867;SDS011;12941;48.698;9.310;2023-12-20T04:01:17;0.4;;;0.4;;
24867;SDS011;12941;48.698;9.310;2023-12-20T04:02:22;0.4;;;0.4;;
24867;SDS011;12941;48.698;9.310;2023-12-20T04:03:27;1.9;;;0.7;;
24867;SDS011;12941;48.698;9.310;2023-12-20T04:04:27;1.9;;;0.7;;
24867;SDS011;12941;48.698;9.310;2023-12-20T04:05:32;1.9;;;0.7;;
24867;SDS011;12941;48.698;9.310;2023-12-20T04:06:37;1.9;;;0.7;;
24867;SDS011;12941;48.698;9.310;2023-12-20T04:07:42;1.9;;;0.7;;
24867;SDS011;12941;48.698;9.310;2023-12-20T04:08:47;1.1;;;0.5;;
24867;SDS011;12941;48.698;9.310;2023-12-20T04:09:47;1.1;;;0.5;;
24867;SDS011;12941;48.698;9.310;2023-12-20T04:10:52;1.1;;;0.5;;
24867;SDS011;12941;48.698;9.310;2023-12-20T04:11:52;1.1;;;0.5;;
24867;SDS011;12941;48.698;9.310;2023-12-20T04:12:57;1.1;;;0.5;;
24867;SDS011;12941;48.698;9.310;2023-12-20T04:14:02;1.7;;;0.7;;
24867;SDS011;12941;48.698;9.310;2023-12-20T04:15:07;1.7;;;0.7;;
24867;SDS011;12941;48.698;9.310;2023-12-20T04:16:07;1.7;;;0.7;;
24867;SDS011;12941;48.698;9.310;2023-12-20T04:17:07;1.7;;;0.7;;
24867;SDS011;12941;48.698;9.310;2023-12-20T04:18:07;1.7;;;0.7;;
24867;SDS011;12941;48.698;9.310;2023-12-20T04:19:07;0.6;;;0.6;;
24867;SDS011;12941;48.698;9.310;2023-12-20T04:20:12;0.6;;;0.6;;
24867;SDS011;12941;48.698;9.310;2023-12-20T04:21:17;0.6;;;0.6;;
24867;SDS011;12941;48.698;9.310;2023-12-20T04:22:22;0.6;;;0.6;;
24867;SDS011;12941;48.698;9.310;2023-12-20T04:23:22;1.2;;;0.4;;
24867;SDS011;12941;48.698;9.310;2023-12-20T04:24:22;1.2;;;0.4;;
24867;SDS011;12941;48.698;9.310;2023-12-20T04:25:22;1.2;;;0.4;;
24867;SDS011;12941;48.698;9.310;2023-12-20T04:26:22;1.2;;;0.4;;
24867;SDS011;12941;48.698;9.310;2023-12-20T04:27:27;1.2;;;0.4;;
24867;SDS011;12941;48.698;9.310;2023-12-20T04:28:27;1.3;;;0.6;;
24867;SDS011;12941;48.698;9.310;2023-12-20T04:29:32;1.3;;;0.6;;
24867;SDS011;12941;48.698;9.310;2023-12-20T04:30:37;1.3;;;0.6;;
24867;SDS011;12941;48.698;9.310;2023-12-20T04:31:42;1.3;;;0.6;;
24867;SDS011;12941;48.698;9.310;2023-12-20T04:32:47;1.3;;;0.6;;
24867;SDS011;12941;48.698;9.310;2023-12-20T04:33:47;0.6;;;0.5;;
24867;SDS011;12941;48.698;9.310;2023-12-20T04:34:52;0.6;;;0.5;;
24867;SDS011;12941;48.698;9.310;2023-12-20T04:35:52;0.6;;;0.5;;
24867;SDS011;12941;48.698;9.310;2023-12-20T04:36:57;0.6;;;0.5;;
24867;SDS011;12941;48.698;9.310;2023-12-20T04:37:57;0.6;;;0.5;;
24867;SDS011;12941;48.698;9.310;2023-12-20T04:39:02;1.2;;;0.5;;
24867;SDS011;12941;48.698;9.310;2023-12-20T04:40:07;1.2;;;0.5;;
24867;SDS011;12941;48.698;9.310;2023-12-20T04:41:07;1.2;;;0.5;;
24867;SDS011;12941;48.698;9.310;2023-12-20T04:42:12;1.2;;;0.5;;
24867;SDS011;12941;48.698;9.310;2023-12-20T04:43:12;1.1;;;0.4;;
24867;SDS011;12941;48.698;9.310;2023-12-20T04:44:17;1.1;;;0.4;;
24867;SDS011;12941;48.698;9.310;2023-12-20T04:45:17;1.1;;;0.4;;
24867;SDS011;12941;48.698;9.310;2023-12-20T04:46:17;1.1;;;0.4;;
24867;SDS011;12941;48.698;9.310;2023-12-20T04:47:17;1.1;;;0.4;;
24867;SDS011;12941;48.698;9.310;2023-12-20T04:48:17;0.8;;;0.5;;
24867;SDS011;12941;48.698;9.310;2023-12-20T04:49:22;0.8;;;0.5;;
24867;SDS011;12941;48.698;9.310;2023-12-20T04:50:22;0.8;;;0.5;;
24867;SDS011;12941;48.698;9.310;2023-12-20T04:51:27;0.8;;;0.5;;
24867;SDS011;12941;48.698;9.310;2023-12-20T04:52:27;0.8;;;0.5;;
24867;SDS011;12941;48.698;9.310;2023-12-20T04:53:32;1;;;0.5;;
24867;SDS011;12941;48.698;9.310;2023-12-20T04:54:37;1;;;0.5;;
24867;SDS011;12941;48.698;9.310;2023-12-20T04:55:42;1;;;0.5;;
24867;SDS011;12941;48.698;9.310;2023-12-20T04:56:42;1;;;0.5;;
24867;SDS011;12941;48.698;9.310;2023-12-20T04:57:47;1;;;0.5;;
24867;SDS011;12941;48.698;9.310;2023-12-20T04:58:47;1.4;;;0.4;;
24867;SDS011;12941;48.698;9.310;2023-12-20T04:59:47;1.4;;;0.4;;
24867;SDS011;12941;48.698;9.310;2023-12-20T05:00:52;1.4;;;0.4;;
24867;SDS011;12941;48.698;9.310;2023-12-20T05:01:52;1.4;;;0.4;;
24867;SDS011;12941;48.698;9.310;2023-12-20T05:02:57;1.4;;;0.4;;
24867;SDS011;12941;48.698;9.310;2023-12-20T05:03:57;0.5;;;0.4;;
24867;SDS011;12941;48.698;9.310;2023-12-20T05:05:02;0.5;;;0.4;;
24867;SDS011;12941;48.698;9.310;2023-12-20T05:06:07;0.5;;;0.4;;
24867;SDS011;12941;48.698;9.310;2023-12-20T05:07:07;0.5;;;0.4;;
24867;SDS011;12941;48.698;9.310;2023-12-20T05:08:12;0.8;;;0.4;;
24867;SDS011;12941;48.698;9.310;2023-12-20T05:09:17;0.8;;;0.4;;
24867;SDS011;12941;48.698;9.310;2023-12-20T05:10:17;0.8;;;0.4;;
24867;SDS011;12941;48.698;9.310;2023-12-20T05:11:17;0.8;;;0.4;;
24867;SDS011;12941;48.698;9.310;2023-12-20T05:12:22;0.8;;;0.4;;
24867;SDS011;12941;48.698;9.310;2023-12-20T05:13:27;1.8;;;0.4;;
24867;SDS011;12941;48.698;9.310;2023-12-20T05:14:27;1.8;;;0.4;;
24867;SDS011;12941;48.698;9.310;2023-12-20T05:15:27;1.8;;;0.4;;
24867;SDS011;12941;48.698;9.310;2023-12-20T05:16:32;1.8;;;0.4;;
24867;SDS011;12941;48.698;9.310;2023-12-20T05:17:32;1.8;;;0.4;;
24867;SDS011;12941;48.698;9.310;2023-12-20T05:18:32;1;;;0.4;;
24867;SDS011;12941;48.698;9.310;2023-12-20T05:19:37;1;;;0.4;;
24867;SDS011;12941;48.698;9.310;2023-12-20T05:20:37;1;;;0.4;;
24867;SDS011;12941;48.698;9.310;2023-12-20T05:21:42;1;;;0.4;;
24867;SDS011;12941;48.698;9.310;2023-12-20T05:22:47;1;;;0.4;;
24867;SDS011;12941;48.698;9.310;2023-12-20T05:23:52;1.8;;;0.6;;
24867;SDS011;12941;48.698;9.310;2023-12-20T05:24:57;1.8;;;0.6;;
24867;SDS011;12941;48.698;9.310;2023-12-20T05:26:02;1.8;;;0.6;;
24867;SDS011;12941;48.698;9.310;2023-12-20T05:27:02;1.8;;;0.6;;
24867;SDS011;12941;48.698;9.310;2023-12-20T05:28:07;1.8;;;0.6;;
24867;SDS011;12941;48.698;9.310;2023-12-20T05:29:07;1.1;;;0.5;;
24867;SDS011;12941;48.698;9.310;2023-12-20T05:30:07;1.1;;;0.5;;
24867;SDS011;12941;48.698;9.310;2023-12-20T05:31:07;1.1;;;0.5;;
24867;SDS011;12941;48.698;9.310;2023-12-20T05:32:07;1.1;;;0.5;;
24867;SDS011;12941;48.698;9.310;2023-12-20T05:33:07;1.1;;;0.5;;
24867;SDS011;12941;48.698;9.310;2023-12-20T05:34:12;1.1;;;0.6;;
24867;SDS011;12941;48.698;9.310;2023-12-20T05:35:12;1.1;;;0.6;;
24867;SDS011;12941;48.698;9.310;2023-12-20T05:36:12;1.1;;;0.6;;
24867;SDS011;12941;48.698;9.310;2023-12-20T05:37:12;1.1;;;0.6;;
24867;SDS011;12941;48.698;9.310;2023-12-20T05:38:12;8.5;;;4.3;;
24867;SDS011;12941;48.698;9.310;2023-12-20T05:39:17;8.5;;;4.3;;
24867;SDS011;12941;48.698;9.310;2023-12-20T05:40:18;8.5;;;4.3;;
24867;SDS011;12941;48.698;9.310;2023-12-20T05:41:22;8.5;;;4.3;;
24867;SDS011;12941;48.698;9.310;2023-12-20T05:42:27;8.5;;;4.3;;
24867;SDS011;12941;48.698;9.310;2023-12-20T05:43:32;18.8;;;11;;
24867;SDS011;12941;48.698;9.310;2023-12-20T05:44:33;18.8;;;11;;
24867;SDS011;12941;48.698;9.310;2023-12-20T05:45:37;18.8;;;11;;
24867;SDS011;12941;48.698;9.310;2023-12-20T05:46:42;18.8;;;11;;
24867;SDS011;12941;48.698;9.310;2023-12-20T05:47:42;18.8;;;11;;
24867;SDS011;12941;48.698;9.310;2023-12-20T05:48:42;2.7;;;0.9;;
24867;SDS011;12941;48.698;9.310;2023-12-20T05:49:43;2.7;;;0.9;;
24867;SDS011;12941;48.698;9.310;2023-12-20T05:50:43;2.7;;;0.9;;
24867;SDS011;12941;48.698;9.310;2023-12-20T05:51:43;2.7;;;0.9;;
24867;SDS011;12941;48.698;9.310;2023-12-20T05:52:43;2.7;;;0.9;;
24867;SDS011;12941;48.698;9.310;2023-12-20T05:53:47;2.1;;;0.6;;
24867;SDS011;12941;48.698;9.310;2023-12-20T05:54:53;2.1;;;0.6;;
24867;SDS011;12941;48.698;9.310;2023-12-20T05:55:53;2.1;;;0.6;;
24867;SDS011;12941;48.698;9.310;2023-12-20T05:56:57;2.1;;;0.6;;
24867;SDS011;12941;48.698;9.310;2023-12-20T05:58:02;2.1;;;0.6;;
24867;SDS011;12941;48.698;9.310;2023-12-20T05:59:02;1.9;;;0.8;;
24867;SDS011;12941;48.698;9.310;2023-12-20T06:00:08;1.9;;;0.8;;
24867;SDS011;12941;48.698;9.310;2023-12-20T06:01:08;1.9;;;0.8;;
24867;SDS011;12941;48.698;9.310;2023-12-20T06:02:12;1.9;;;0.8;;
24867;SDS011;12941;48.698;9.310;2023-12-20T06:03:13;1;;;0.4;;
24867;SDS011;12941;48.698;9.310;2023-12-20T06:04:18;1;;;0.4;;
24867;SDS011;12941;48.698;9.310;2023-12-20T06:05:18;1;;;0.4;;
24867;SDS011;12941;48.698;9.310;2023-12-20T06:06:18;1;;;0.4;;
24867;SDS011;12941;48.698;9.310;2023-12-20T06:07:18;1;;;0.4;;
24867;SDS011;12941;48.698;9.310;2023-12-20T06:08:18;1;;;0.3;;
24867;SDS011;12941;48.698;9.310;2023-12-20T06:09:18;1;;;0.3;;
24867;SDS011;12941;48.698;9.310;2023-12-20T06:10:18;1;;;0.3;;
24867;SDS011;12941;48.698;9.310;2023-12-20T06:11:18;1;;;0.3;;
24867;SDS011;12941;48.698;9.310;2023-12-20T06:12:18;1;;;0.3;;
24867;SDS011;12941;48.698;9.310;2023-12-20T06:13:23;0.7;;;0.5;;
24867;SDS011;12941;48.698;9.310;2023-12-20T06:14:28;0.7;;;0.5;;
24867;SDS011;12941;48.698;9.310;2023-12-20T06:15:33;0.7;;;0.5;;
24867;SDS011;12941;48.698;9.310;2023-12-20T06:16:38;0.7;;;0.5;;
24867;SDS011;12941;48.698;9.310;2023-12-20T06:17:38;0.7;;;0.5;;
24867;SDS011;12941;48.698;9.310;2023-12-20T06:18:38;1.3;;;0.5;;
24867;SDS011;12941;48.698;9.310;2023-12-20T06:19:43;1.3;;;0.5;;
24867;SDS011;12941;48.698;9.310;2023-12-20T06:20:43;1.3;;;0.5;;
24867;SDS011;12941;48.698;9.310;2023-12-20T06:21:48;1.3;;;0.5;;
24867;SDS011;12941;48.698;9.310;2023-12-20T06:22:53;1.3;;;0.5;;
24867;SDS011;12941;48.698;9.310;2023-12-20T06:23:53;1.3;;;0.4;;
24867;SDS011;12941;48.698;9.310;2023-12-20T06:24:58;1.3;;;0.4;;
24867;SDS011;12941;48.698;9.310;2023-12-20T06:26:03;1.3;;;0.4;;
24867;SDS011;12941;48.698;9.310;2023-12-20T06:27:08;1.3;;;0.4;;
24867;SDS011;12941;48.698;9.310;2023-12-20T06:28:08;2.1;;;0.6;;
24867;SDS011;12941;48.698;9.310;2023-12-20T06:29:08;1.9;;;0.5;;
24867;SDS011;12941;48.698;9.310;2023-12-20T06:30:08;1.9;;;0.5;;